Time;durP1;ratioP1;P1;durP2;ratioP2;P2;SDS_P1;SDS_P2;PMS_P1;PMS_P2;Temp;Humidity;BMP_temperature;BMP_pressure;BME280_temperature;BME280_humidity;BME280_pressure;Samples;Min_cycle;Max_cycle;Signal;HPM_P1;HPM_P2
2023/08/26 07:01:22;;;;;;;1.70;0.57;;;21.00;99.90;22.50;100760.00;;;;6219446;22;1958907;-65
2023/08/26 07:03:48;;;;;;;0.50;0.50;;;20.10;99.90;22.50;100765.00;;;;6312983;22;20595;-65
2023/08/26 07:06:17;;;;;;;0.10;0.10;;;20.00;99.90;23.90;100784.00;;;;6313277;22;20156;-66
2023/08/26 07:08:46;;;;;;;0.43;0.40;;;20.50;99.90;21.20;100773.00;;;;6312620;22;20151;-65
2023/08/26 07:11:13;;;;;;;0.22;0.22;;;19.60;99.90;22.50;100780.00;;;;6313832;22;20155;-65
2023/08/26 07:13:39;;;;;;;0.95;0.95;;;19.50;99.90;20.60;100767.00;;;;6339010;22;20222;-65
2023/08/26 07:16:05;;;;;;;0.10;0.10;;;18.90;99.90;22.10;100773.00;;;;6312881;22;20200;-64
2023/08/26 07:18:31;;;;;;;0.13;0.13;;;19.00;99.90;21.60;100787.00;;;;6313316;22;20156;-65
2023/08/26 07:20:57;;;;;;;0.28;0.28;;;19.30;99.90;22.50;100776.00;;;;6313026;22;20191;-65
2023/08/26 07:23:23;;;;;;;0.25;0.25;;;20.00;99.90;24.90;100804.00;;;;6312627;22;20176;-65
2023/08/26 07:25:49;;;;;;;3.45;3.13;;;21.00;99.90;23.40;100805.00;;;;6313031;22;20162;-65
2023/08/26 07:28:15;;;;;;;0.10;0.10;;;21.10;99.90;25.20;100801.00;;;;6313115;22;20156;-65
2023/08/26 07:30:44;;;;;;;0.10;0.10;;;21.50;99.90;25.50;100859.00;;;;6312593;22;20160;-65
2023/08/26 07:33:11;;;;;;;0.10;0.10;;;22.30;99.90;26.50;100871.00;;;;6313134;22;20579;-65
2023/08/26 07:35:40;;;;;;;0.10;0.10;;;22.60;99.90;27.70;100889.00;;;;6312898;22;20592;-65
2023/08/26 07:38:06;;;;;;;0.10;0.10;;;23.50;99.90;26.60;100905.00;;;;6338788;22;20508;-66
2023/08/26 07:40:33;;;;;;;0.10;0.10;;;23.60;99.90;25.10;100905.00;;;;6312788;22;20156;-65
2023/08/26 07:43:04;;;;;;;0.10;0.10;;;22.90;99.90;27.00;100871.00;;;;6312579;22;20199;-66
2023/08/26 07:45:34;;;;;;;0.28;0.28;;;22.80;99.90;23.80;100848.00;;;;6312984;22;20222;-65
2023/08/26 07:48:00;;;;;;;0.10;0.10;;;21.60;99.90;27.60;100870.00;;;;6339023;22;20143;-66
2023/08/26 07:50:26;;;;;;;0.10;0.10;;;23.00;99.90;26.20;100900.00;;;;6312768;22;20490;-65
2023/08/26 07:52:53;;;;;;;2.83;0.47;;;23.10;99.90;25.30;100896.00;;;;6312476;22;20156;-65
2023/08/26 07:55:22;;;;;;;0.90;0.90;;;22.60;99.90;23.10;100817.00;;;;6312622;22;20160;-65
2023/08/26 07:57:48;;;;;;;0.20;0.20;;;21.00;99.90;22.30;100806.00;;;;6312717;22;20163;-65
2023/08/26 08:00:19;;;;;;;8.20;1.38;;;20.40;99.90;22.60;100773.00;;;;6311962;22;20629;-65
2023/08/26 08:02:45;;;;;;;0.30;0.30;;;20.10;99.90;20.40;100763.00;;;;6312573;22;20184;-65
2023/08/26 08:05:11;;;;;;;0.10;0.10;;;19.20;99.90;22.00;100783.00;;;;6312103;22;20193;-65
2023/08/26 08:07:37;;;;;;;0.10;0.10;;;19.20;99.90;23.10;100813.00;;;;6312366;22;20289;-65
2023/08/26 08:10:04;;;;;;;0.20;0.20;;;20.10;99.90;23.00;100810.00;;;;6312484;22;20576;-65
2023/08/26 08:12:30;;;;;;;0.20;0.20;;;20.40;99.90;23.70;100837.00;;;;6338687;22;20268;-65
2023/08/26 08:14:56;;;;;;;0.30;0.15;;;21.00;99.90;22.20;100802.00;;;;6338473;22;20164;-65
2023/08/26 08:17:22;;;;;;;0.10;0.10;;;20.40;99.90;24.80;100812.00;;;;6312187;22;20167;-65
2023/08/26 08:19:48;;;;;;;0.10;0.10;;;20.80;99.90;25.40;100836.00;;;;6338902;22;20193;-66
2023/08/26 08:22:17;;;;;;;0.10;0.10;;;21.80;99.90;25.70;100876.00;;;;6311868;22;20183;-66
2023/08/26 08:24:44;;;;;;;0.13;0.13;;;22.40;99.90;22.90;100865.00;;;;6312544;22;20155;-65
2023/08/26 08:27:10;;;;;;;0.22;0.22;;;21.40;99.90;21.90;100827.00;;;;6312277;22;20471;-65
2023/08/26 08:29:36;;;;;;;0.15;0.15;;;20.60;99.90;24.00;100808.00;;;;6312381;22;20170;-65
2023/08/26 08:32:02;;;;;;;0.10;0.10;;;20.90;99.90;23.30;100855.00;;;;6312191;22;20155;-65
2023/08/26 08:34:28;;;;;;;0.32;0.32;;;21.20;99.90;22.20;100798.00;;;;6338511;22;20219;-65
2023/08/26 08:36:54;;;;;;;0.10;0.10;;;20.40;99.90;22.50;100810.00;;;;6337712;22;20135;-65
2023/08/26 08:39:20;;;;;;;0.20;0.20;;;20.50;99.90;21.80;100782.00;;;;6312424;22;20208;-65
2023/08/26 08:41:51;;;;;;;0.10;0.10;;;20.30;99.90;23.30;100794.00;;;;6312169;22;20159;-65
2023/08/26 08:44:20;;;;;;;0.10;0.10;;;20.70;99.90;23.20;100791.00;;;;6312819;22;20155;-65
2023/08/26 08:46:46;;;;;;;0.10;0.10;;;20.70;99.90;24.70;100824.00;;;;6312193;22;20633;-65
2023/08/26 08:49:12;;;;;;;0.10;0.10;;;21.50;99.90;24.20;100844.00;;;;6312026;22;20155;-65
2023/08/26 08:51:39;;;;;;;0.10;0.10;;;21.70;99.90;24.30;100847.00;;;;6311979;22;20535;-66
2023/08/26 08:54:06;;;;;;;0.10;0.10;;;21.80;99.90;25.00;100846.00;;;;6311978;22;20155;-66
2023/08/26 08:56:32;;;;;;;0.15;0.15;;;21.90;99.90;27.30;100878.00;;;;6337825;22;20144;-65
2023/08/26 08:59:01;;;;;;;0.10;0.10;;;23.20;99.90;27.50;100888.00;;;;6311871;22;20162;-66
2023/08/26 09:01:30;;;;;;;0.45;0.45;;;23.50;99.90;26.90;100913.00;;;;6337635;22;20579;-66
2023/08/26 09:03:56;;;;;;;0.10;0.10;;;23.70;99.90;27.90;100908.00;;;;6312112;22;20175;-65
2023/08/26 09:06:22;;;;;;;0.20;0.20;;;24.20;99.90;27.60;100917.00;;;;6311786;22;20199;-66
2023/08/26 09:08:49;;;;;;;0.40;0.15;;;24.00;99.90;25.10;100934.00;;;;6312074;22;20580;-65
2023/08/26 09:11:15;;;;;;;0.10;0.10;;;23.10;99.90;25.90;100922.00;;;;6311753;22;20235;-66
2023/08/26 09:13:43;;;;;;;4.93;0.35;;;22.70;99.90;25.10;100912.00;;;;6312190;22;20159;-65
2023/08/26 09:16:14;;;;;;;0.10;0.10;;;22.60;99.90;27.60;100917.00;;;;6337347;22;20139;-66
2023/08/26 09:18:40;;;;;;;0.10;0.10;;;23.30;99.90;26.10;100930.00;;;;6311672;22;20189;-65
2023/08/26 09:21:08;;;;;;;0.10;0.10;;;23.00;99.90;25.60;100924.00;;;;6311730;22;20530;-66
2023/08/26 09:23:44;;;;;;;0.20;0.20;;;22.60;99.90;27.10;100931.00;;;;6337967;22;20174;-65
2023/08/26 09:26:14;;;;;;;0.17;0.17;;;23.30;99.90;26.30;100939.00;;;;6311803;22;20159;-66
2023/08/26 09:28:47;;;;;;;2.13;0.30;;;23.30;99.90;25.20;100947.00;;;;6311620;22;20234;-65
2023/08/26 09:31:16;;;;;;;0.20;0.20;;;22.90;99.90;27.20;100939.00;;;;6311309;22;20532;-65
2023/08/26 09:33:42;;;;;;;0.10;0.10;;;23.20;99.90;26.40;100929.00;;;;6339260;22;20513;-65
2023/08/26 09:36:08;;;;;;;0.10;0.10;;;23.00;99.90;26.70;100934.00;;;;6311365;22;20208;-66
2023/08/26 09:38:47;;;;;;;0.10;0.10;;;23.50;99.90;25.90;100955.00;;;;6311604;22;20174;-65
2023/08/26 09:41:21;;;;;;;1.38;0.55;;;23.20;99.90;26.00;100948.00;;;;6337818;22;20288;-65
2023/08/26 09:43:47;;;;;;;0.30;0.30;;;23.10;99.90;25.90;100948.00;;;;6312844;22;20186;-65
2023/08/26 09:46:21;;;;;;;0.22;0.20;;;23.10;99.90;25.10;100947.00;;;;6311528;22;20242;-65
2023/08/26 09:48:48;;;;;;;0.45;0.45;;;22.60;99.90;26.40;100901.00;;;;6337053;22;20563;-65
2023/08/26 09:51:28;;;;;;;0.10;0.10;;;22.70;99.90;26.60;100943.00;;;;6311567;22;20234;-65
2023/08/26 09:53:55;;;;;;;0.22;0.22;;;23.20;99.90;25.30;100949.00;;;;6311095;22;20587;-65
2023/08/26 09:56:26;;;;;;;0.15;0.15;;;22.80;99.90;26.50;100950.00;;;;6311607;22;20151;-66
2023/08/26 09:58:55;;;;;;;0.20;0.20;;;23.20;99.90;25.50;100954.00;;;;6337542;22;20139;-65
2023/08/26 10:01:22;;;;;;;0.10;0.10;;;23.00;99.90;26.80;100941.00;;;;6337740;22;20163;-65
2023/08/26 10:03:54;;;;;;;0.17;0.17;;;23.60;99.90;27.30;100946.00;;;;6337551;22;20164;-65
2023/08/26 10:06:26;;;;;;;0.30;0.30;;;23.90;99.90;26.00;100960.00;;;;6336894;22;20246;-65
2023/08/26 10:09:06;;;;;;;0.63;0.63;;;23.50;99.90;26.10;100961.00;;;;6337644;22;20177;-65
2023/08/26 10:11:41;;;;;;;0.68;0.55;;;23.10;99.90;26.00;100954.00;;;;6337697;22;20147;-65
2023/08/26 10:14:13;;;;;;;2.60;0.60;;;23.10;99.90;24.40;100959.00;;;;6310816;22;20159;-65
2023/08/26 10:16:44;;;;;;;0.25;0.25;;;22.70;99.90;24.10;100936.00;;;;6311259;22;20468;-65
2023/08/26 10:19:10;;;;;;;6.00;0.30;;;22.00;99.90;25.70;100930.00;;;;6311197;22;20667;-66
2023/08/26 10:33:28;;;;;;;0.10;0.10;;;22.40;99.90;25.00;100875.00;;;;5050177;28;20371;-64
2023/08/26 10:36:13;;;;;;;0.30;0.30;;;22.50;99.90;23.60;100927.00;;;;5012713;28;20249;-65
2023/08/26 10:38:39;;;;;;;0.57;0.57;;;22.10;99.90;22.90;100891.00;;;;5020706;28;20193;-66
2023/08/26 10:41:12;;;;;;;0.10;0.10;;;21.20;99.90;24.40;100876.00;;;;5013003;28;20660;-67
2023/08/26 10:43:54;;;;;;;0.13;0.13;;;21.30;99.90;25.90;100894.00;;;;5028935;28;20812;-64
2023/08/26 10:46:55;;;;;;;0.30;0.30;;;22.20;99.90;25.50;100946.00;;;;5029704;28;20178;-64
2023/08/26 10:49:39;;;;;;;0.10;0.10;;;22.50;99.90;25.90;100941.00;;;;5010425;28;20190;-64
2023/08/26 10:52:18;;;;;;;0.10;0.10;;;22.50;99.90;23.70;100919.00;;;;5028873;28;20198;-66
2023/08/26 10:54:45;;;;;;;0.75;0.75;;;21.50;99.90;25.40;100917.00;;;;5012484;28;20272;-67
2023/08/26 10:57:12;;;;;;;0.10;0.10;;;21.70;99.90;25.90;100928.00;;;;5024904;28;20625;-66
2023/08/26 10:59:41;;;;;;;4.00;1.75;;;22.20;99.90;25.50;100937.00;;;;5006253;28;20195;-64
2023/08/26 11:02:11;;;;;;;6.78;0.50;;;22.30;99.90;24.20;100963.00;;;;5011531;28;20283;-64
2023/08/26 11:04:46;;;;;;;0.25;0.25;;;22.20;99.90;24.00;100948.00;;;;5020968;28;20265;-64
2023/08/26 11:07:21;;;;;;;0.10;0.10;;;21.80;99.90;25.70;100943.00;;;;5008803;28;20180;-65
2023/08/26 11:09:50;;;;;;;0.10;0.10;;;22.30;99.90;25.30;100942.00;;;;5024081;28;20602;-65
2023/08/26 11:12:26;;;;;;;0.20;0.20;;;22.40;99.90;25.30;100939.00;;;;5012004;28;20206;-65
2023/08/26 11:14:54;;;;;;;0.13;0.13;;;22.20;99.90;26.10;100950.00;;;;5029241;28;20186;-66
2023/08/26 11:17:23;;;;;;;0.25;0.25;;;23.00;99.90;26.20;100932.00;;;;5028425;28;20210;-64
2023/08/26 11:19:49;;;;;;;0.30;0.30;;;23.00;99.90;25.80;100955.00;;;;5028120;28;20198;-65
2023/08/26 11:22:15;;;;;;;0.10;0.10;;;23.10;99.90;26.20;100944.00;;;;5028534;28;20191;-65
2023/08/26 11:24:48;;;;;;;0.10;0.10;;;23.00;99.90;26.40;100932.00;;;;5028596;28;20190;-65
2023/08/26 11:27:14;;;;;;;0.10;0.10;;;22.80;99.90;26.40;100935.00;;;;5029521;28;20218;-65
2023/08/26 11:29:40;;;;;;;0.13;0.13;;;23.00;99.90;26.70;100933.00;;;;5026770;28;20218;-65
2023/08/26 11:32:07;;;;;;;0.20;0.20;;;23.40;99.90;25.50;100948.00;;;;5020530;28;20246;-65
2023/08/26 11:34:34;;;;;;;0.25;0.25;;;23.20;99.90;25.90;100953.00;;;;5048382;28;20764;-65
2023/08/26 11:37:00;;;;;;;0.10;0.10;;;23.20;99.90;25.70;100952.00;;;;5048245;28;20194;-65
2023/08/26 11:39:37;;;;;;;0.10;0.10;;;22.90;99.90;26.70;100934.00;;;;5031108;28;20244;-64
2023/08/26 11:42:15;;;;;;;0.10;0.10;;;23.10;99.90;26.10;100940.00;;;;5047743;28;20197;-64
2023/08/26 11:44:48;;;;;;;0.50;0.40;;;23.10;99.90;26.00;100944.00;;;;5015247;28;20191;-64
2023/08/26 11:47:14;;;;;;;0.30;0.30;;;23.00;99.90;25.30;100945.00;;;;5021929;28;20178;-65
2023/08/26 11:49:42;;;;;;;0.25;0.25;;;22.90;99.90;25.90;100935.00;;;;5023776;28;20199;-65
2023/08/26 11:52:13;;;;;;;0.10;0.10;;;23.00;99.90;27.80;100920.00;;;;5018344;28;20258;-65
2023/08/26 11:54:39;;;;;;;0.10;0.10;;;23.60;99.90;27.00;100928.00;;;;5023657;28;20186;-65
2023/08/26 11:57:08;;;;;;;0.15;0.15;;;23.90;99.90;26.30;100935.00;;;;5018083;28;20642;-65
2023/08/26 11:59:38;;;;;;;0.30;0.30;;;23.40;99.90;25.50;100952.00;;;;5034210;28;20535;-64
2023/08/26 12:02:34;;;;;;;0.10;0.10;;;22.90;99.90;27.20;100927.00;;;;5033755;28;20191;-64
2023/08/26 12:05:01;;;;;;;1.67;1.00;;;23.10;99.90;25.80;100953.00;;;;5000849;28;20719;-64
2023/08/26 12:07:35;;;;;;;0.82;0.30;;;23.20;99.90;24.60;100962.00;;;;5017554;28;20191;-66
2023/08/26 12:10:11;;;;;;;1.02;0.60;;;22.20;99.90;25.20;100968.00;;;;5022625;28;20270;-66
2023/08/26 12:12:38;;;;;;;0.15;0.15;;;22.40;99.90;24.00;100971.00;;;;5029175;28;20203;-65
2023/08/26 12:15:10;;;;;;;0.30;0.30;;;21.80;99.90;24.20;100968.00;;;;5033893;28;20175;-65
2023/08/26 12:17:47;;;;;;;1.25;0.90;;;21.80;99.90;24.00;100978.00;;;;5033792;28;20987;-65
2023/08/26 12:20:30;;;;;;;0.40;0.40;;;21.70;99.90;25.00;100960.00;;;;5017113;28;20182;-65
2023/08/26 12:23:04;;;;;;;0.20;0.20;;;21.80;99.90;25.20;100957.00;;;;5017816;28;20194;-65
2023/08/26 12:25:41;;;;;;;0.13;0.13;;;22.20;99.90;25.00;100950.00;;;;5019566;28;20183;-65
2023/08/26 12:28:24;;;;;;;0.10;0.10;;;22.40;99.90;26.00;100941.00;;;;5014384;28;20187;-66
2023/08/26 12:30:56;;;;;;;0.10;0.10;;;22.70;99.90;26.50;100931.00;;;;5022109;28;20224;-66
2023/08/26 12:33:23;;;;;;;0.10;0.10;;;22.90;99.90;27.20;100925.00;;;;5003013;28;20219;-66
2023/08/26 12:35:51;;;;;;;0.93;0.40;;;23.20;99.90;26.30;100942.00;;;;4994316;28;20224;-66
2023/08/26 12:38:17;;;;;;;0.10;0.10;;;23.30;99.90;25.40;100950.00;;;;5004015;28;20641;-65
2023/08/26 12:40:47;;;;;;;0.10;0.10;;;22.40;99.90;26.00;100958.00;;;;4993990;28;20589;-66
2023/08/26 12:43:21;;;;;;;0.10;0.10;;;22.50;99.90;25.60;100965.00;;;;4998830;28;20341;-65
2023/08/26 12:45:48;;;;;;;0.20;0.20;;;22.60;99.90;25.80;100951.00;;;;5013866;28;20187;-65
2023/08/26 12:48:20;;;;;;;0.30;0.25;;;22.60;99.90;25.70;100932.00;;;;5012262;28;20249;-65
2023/08/26 12:50:46;;;;;;;0.10;0.10;;;22.80;99.90;27.30;100947.00;;;;5013601;28;20265;-66
2023/08/26 12:53:12;;;;;;;0.10;0.10;;;23.20;99.90;26.60;100936.00;;;;4996947;28;20900;-65
2023/08/26 12:55:38;;;;;;;0.40;0.35;;;23.40;99.90;24.90;100974.00;;;;5012286;28;20213;-65
2023/08/26 12:58:06;;;;;;;0.45;0.45;;;22.90;99.90;24.10;100977.00;;;;5013187;28;20200;-65
2023/08/26 13:00:32;;;;;;;0.22;0.22;;;22.20;99.90;25.90;100969.00;;;;4990430;28;20192;-66
2023/08/26 13:03:01;;;;;;;0.40;0.40;;;22.60;99.90;25.10;100972.00;;;;5011237;28;20776;-65
2023/08/26 13:05:27;;;;;;;1.73;1.63;;;22.50;99.90;24.60;100981.00;;;;5013435;28;20187;-66
2023/08/26 13:07:53;;;;;;;2.25;0.70;;;22.30;99.90;24.20;100964.00;;;;4996405;28;20620;-66
2023/08/26 13:10:24;;;;;;;0.25;0.25;;;21.70;99.90;23.10;100957.00;;;;4993621;28;20200;-66
2023/08/26 13:12:50;;;;;;;1.27;1.17;;;21.20;99.90;23.90;100933.00;;;;4987921;28;20200;-65
2023/08/26 13:15:18;;;;;;;0.55;0.50;;;21.30;99.90;23.30;100920.00;;;;4993879;28;20313;-65
2023/08/26 13:17:53;;;;;;;0.10;0.10;;;21.10;99.90;24.60;100931.00;;;;4996927;28;20266;-65
2023/08/26 13:20:20;;;;;;;0.20;0.20;;;21.50;99.90;25.50;100924.00;;;;5007618;28;20227;-66
2023/08/26 13:22:46;;;;;;;0.32;0.20;;;21.80;99.90;24.90;100914.00;;;;5002604;28;20522;-66
2023/08/26 13:25:14;;;;;;;0.20;0.20;;;21.70;99.90;23.70;100837.00;;;;5002097;28;20528;-66
2023/08/26 13:27:43;;;;;;;0.30;0.30;;;21.00;99.90;23.60;100832.00;;;;5013233;28;20187;-66
2023/08/26 13:30:15;;;;;;;0.30;0.30;;;20.50;99.90;23.10;100830.00;;;;4996122;28;20187;-65
2023/08/26 13:32:41;;;;;;;0.50;0.50;;;19.90;99.90;23.10;100852.00;;;;5001138;28;20669;-66
2023/08/26 13:35:07;;;;;;;0.50;0.50;;;19.70;99.90;22.50;100846.00;;;;5014330;28;20191;-66
2023/08/26 13:37:33;;;;;;;0.80;0.80;;;19.30;99.90;21.90;100835.00;;;;5004740;28;20186;-66
2023/08/26 13:39:59;;;;;;;0.90;0.90;;;19.00;99.90;21.00;100831.00;;;;4996163;28;20662;-66
2023/08/26 13:42:26;;;;;;;1.60;1.50;;;18.50;99.90;20.50;100833.00;;;;4996327;28;20192;-67
2023/08/26 13:44:52;;;;;;;1.30;1.30;;;18.20;99.90;21.10;100803.00;;;;5013366;28;20192;-67
2023/08/26 13:47:23;;;;;;;1.50;1.50;;;18.00;99.90;20.40;100814.00;;;;4997525;28;20181;-67
2023/08/26 13:49:49;;;;;;;1.63;1.63;;;17.90;99.90;20.00;100808.00;;;;5006191;28;20323;-67
2023/08/26 13:52:23;;;;;;;1.60;1.60;;;17.60;99.90;20.70;100806.00;;;;5005615;28;20295;-67
2023/08/26 13:54:55;;;;;;;1.37;1.37;;;17.80;99.90;19.60;100795.00;;;;4995798;28;20234;-67
2023/08/26 13:57:29;;;;;;;1.20;1.20;;;17.50;99.90;19.30;100797.00;;;;4995952;28;20246;-67
2023/08/26 14:00:01;;;;;;;1.97;1.87;;;17.20;99.90;19.90;100790.00;;;;5012223;28;20190;-67
2023/08/26 14:02:29;;;;;;;1.20;1.20;;;17.30;99.90;20.10;100789.00;;;;5013153;28;20787;-67
2023/08/26 14:05:07;;;;;;;1.50;1.50;;;17.30;99.90;20.50;100789.00;;;;5008307;28;20190;-67
2023/08/26 14:07:36;;;;;;;1.20;1.20;;;17.70;99.90;20.30;100782.00;;;;5013210;28;20658;-67
2023/08/26 14:10:08;;;;;;;1.27;1.27;;;17.70;99.90;20.20;100780.00;;;;5008468;28;20191;-67
2023/08/26 14:12:38;;;;;;;1.10;1.10;;;17.60;99.90;20.30;100766.00;;;;5028340;28;20204;-66
2023/08/26 14:15:09;;;;;;;1.00;1.00;;;17.70;99.90;19.30;100798.00;;;;4995478;28;20477;-66
2023/08/26 14:17:36;;;;;;;0.70;0.70;;;17.50;99.90;20.00;100808.00;;;;5010622;28;20187;-66
2023/08/26 14:20:09;;;;;;;0.70;0.70;;;17.60;99.90;20.10;100797.00;;;;5003917;28;20202;-66
2023/08/26 14:22:36;;;;;;;0.80;0.80;;;17.70;99.90;21.40;100797.00;;;;4990343;28;20282;-66
2023/08/26 14:25:09;;;;;;;0.70;0.70;;;18.20;99.90;22.80;100783.00;;;;5010375;28;20194;-66
2023/08/26 14:27:40;;;;;;;2.85;2.65;;;19.00;99.90;23.30;100815.00;;;;5012113;28;20183;-66
2023/08/26 14:30:08;;;;;;;0.70;0.70;;;19.60;99.90;22.10;100812.00;;;;4992910;28;20184;-66
2023/08/26 14:32:40;;;;;;;0.50;0.50;;;19.50;99.90;22.10;100816.00;;;;5038779;28;20218;-67
2023/08/26 14:35:09;;;;;;;0.60;0.60;;;19.40;99.90;21.90;100819.00;;;;5034923;28;20277;-65
2023/08/26 14:37:35;;;;;;;1.10;0.93;;;19.30;99.90;21.80;100816.00;;;;5034603;28;20186;-66
2023/08/26 14:40:07;;;;;;;0.60;0.60;;;19.40;99.90;22.00;100812.00;;;;5031889;28;20187;-66
2023/08/26 14:42:36;;;;;;;0.40;0.40;;;19.30;99.90;22.10;100819.00;;;;5010040;28;20655;-66
2023/08/26 14:45:09;;;;;;;0.40;0.40;;;19.40;99.90;22.80;100820.00;;;;5016497;28;20190;-66
2023/08/26 14:47:36;;;;;;;0.40;0.40;;;19.60;99.90;23.00;100821.00;;;;5034869;28;20182;-67
2023/08/26 14:50:08;;;;;;;0.93;0.60;;;19.70;99.90;22.60;100818.00;;;;5017880;28;20229;-66
2023/08/26 14:52:36;;;;;;;0.38;0.38;;;19.60;99.90;21.90;100819.00;;;;5025331;28;20540;-66
2023/08/26 14:55:03;;;;;;;0.40;0.40;;;19.40;99.90;21.90;100821.00;;;;5010750;28;20188;-66
2023/08/26 14:57:32;;;;;;;0.40;0.40;;;19.40;99.90;22.90;100822.00;;;;5034915;28;20260;-66
2023/08/26 15:00:04;;;;;;;0.30;0.30;;;19.60;99.90;23.20;100831.00;;;;5035050;28;20191;-66
2023/08/26 15:02:38;;;;;;;0.30;0.30;;;19.80;99.90;23.10;100825.00;;;;5034198;28;20194;-66
2023/08/26 15:05:05;;;;;;;0.65;0.65;;;19.80;99.90;22.90;100833.00;;;;5034847;28;20636;-66
2023/08/26 15:07:31;;;;;;;0.30;0.30;;;19.90;99.90;22.40;100789.00;;;;5025812;28;20240;-66
2023/08/26 15:10:03;;;;;;;0.30;0.30;;;19.70;99.90;22.90;100833.00;;;;5017914;28;20236;-66
2023/08/26 15:12:32;;;;;;;0.20;0.20;;;19.90;99.90;23.00;100820.00;;;;5015082;28;20215;-66
2023/08/26 15:14:58;;;;;;;0.20;0.20;;;20.00;99.90;22.70;100828.00;;;;5009735;28;20187;-66
2023/08/26 15:17:29;;;;;;;1.20;1.20;;;19.80;99.90;23.10;100831.00;;;;5027658;28;20210;-65
2023/08/26 15:19:59;;;;;;;0.30;0.30;;;20.00;99.90;23.50;100830.00;;;;5016228;28;20189;-66
2023/08/26 15:22:29;;;;;;;0.30;0.30;;;20.20;99.90;23.10;100823.00;;;;5035616;28;20193;-65
2023/08/26 15:25:03;;;;;;;0.20;0.20;;;20.20;99.90;23.70;100817.00;;;;5021512;28;20185;-66
2023/08/26 15:27:29;;;;;;;0.20;0.20;;;20.20;99.90;24.20;100834.00;;;;5038401;28;20189;-66
2023/08/26 15:29:58;;;;;;;0.30;0.30;;;20.60;99.90;23.80;100821.00;;;;5020766;28;20191;-66
2023/08/26 15:32:29;;;;;;;0.20;0.20;;;20.70;99.90;23.60;100806.00;;;;5013953;28;20218;-66
2023/08/26 15:34:56;;;;;;;0.20;0.20;;;20.50;99.90;24.60;100830.00;;;;5029943;28;20187;-65
2023/08/26 15:37:30;;;;;;;0.20;0.20;;;20.90;99.90;25.20;100830.00;;;;5037832;28;20178;-66
2023/08/26 15:39:59;;;;;;;0.20;0.20;;;21.20;99.90;24.60;100824.00;;;;5019790;28;20187;-66
2023/08/26 15:42:30;;;;;;;0.20;0.20;;;21.40;99.90;24.60;100836.00;;;;5028187;28;20182;-66
2023/08/26 15:44:56;;;;;;;0.20;0.20;;;21.40;99.90;24.30;100818.00;;;;5037724;28;20209;-66
2023/08/26 15:47:25;;;;;;;0.20;0.20;;;21.00;99.90;25.50;100828.00;;;;5021496;28;20702;-66
2023/08/26 15:49:56;;;;;;;0.20;0.20;;;21.40;99.90;25.10;100830.00;;;;5018260;28;20194;-66
2023/08/26 15:52:22;;;;;;;0.10;0.10;;;21.50;99.90;24.50;100818.00;;;;5040894;28;20206;-66
2023/08/26 15:54:51;;;;;;;0.20;0.20;;;21.30;99.90;24.70;100827.00;;;;5023800;28;20174;-66
2023/08/26 15:57:22;;;;;;;0.10;0.10;;;21.30;99.90;23.30;100793.00;;;;5022503;28;20187;-65
2023/08/26 15:59:51;;;;;;;0.32;0.32;;;20.90;99.90;24.40;100818.00;;;;5054460;28;20197;-65
2023/08/26 16:02:20;;;;;;;0.20;0.20;;;21.00;99.90;24.20;100820.00;;;;5037198;28;20194;-65
2023/08/26 16:04:52;;;;;;;0.20;0.20;;;20.90;99.90;24.10;100808.00;;;;5022417;28;20213;-65
2023/08/26 16:07:17;;;;;;;0.20;0.20;;;20.90;99.90;24.70;100812.00;;;;5013660;28;20236;-66
2023/08/26 16:09:43;;;;;;;0.10;0.10;;;21.20;99.90;23.10;100795.00;;;;5018468;28;20272;-65
2023/08/26 16:12:16;;;;;;;0.20;0.20;;;20.70;99.90;24.10;100811.00;;;;5035487;28;20297;-65
2023/08/26 16:14:43;;;;;;;0.20;0.20;;;20.60;99.90;24.30;100806.00;;;;5027807;28;20175;-66
2023/08/26 16:17:09;;;;;;;1.10;1.05;;;20.90;99.90;24.00;100805.00;;;;5055043;28;20189;-66
2023/08/26 16:19:43;;;;;;;0.10;0.10;;;20.90;99.90;24.00;100806.00;;;;5017435;28;20186;-66
2023/08/26 16:22:12;;;;;;;0.20;0.20;;;20.80;99.90;23.70;100803.00;;;;5037092;28;20229;-66
2023/08/26 16:24:43;;;;;;;0.20;0.20;;;20.70;99.90;23.80;100809.00;;;;5022992;28;20210;-66
2023/08/26 16:27:14;;;;;;;0.20;0.20;;;20.60;99.90;23.80;100806.00;;;;5037040;28;20182;-65
2023/08/26 16:29:45;;;;;;;0.20;0.20;;;20.60;99.90;24.90;100801.00;;;;5036613;28;20193;-66
2023/08/26 16:32:14;;;;;;;0.20;0.20;;;21.00;99.90;24.90;100801.00;;;;5025668;28;20252;-66
2023/08/26 16:34:43;;;;;;;0.20;0.20;;;21.00;99.90;25.30;100812.00;;;;5017482;28;20212;-66
2023/08/26 16:37:17;;;;;;;0.20;0.20;;;21.40;99.90;23.20;100791.00;;;;5025678;28;20215;-66
2023/08/26 16:39:43;;;;;;;0.10;0.10;;;20.90;99.90;23.40;100791.00;;;;5013228;28;20580;-66
2023/08/26 16:42:15;;;;;;;0.10;0.10;;;20.50;99.90;24.30;100800.00;;;;5019928;28;20202;-66
2023/08/26 16:44:41;;;;;;;0.10;0.10;;;20.70;99.90;24.70;100803.00;;;;5036499;28;20256;-66
2023/08/26 16:47:09;;;;;;;2.17;0.60;;;20.90;99.90;23.60;100825.00;;;;5018493;28;20186;-66
2023/08/26 16:49:43;;;;;;;0.20;0.20;;;20.90;99.90;23.80;100778.00;;;;5028453;28;20179;-66
2023/08/26 16:52:12;;;;;;;0.10;0.10;;;20.70;99.90;24.50;100810.00;;;;5032342;28;20205;-66
2023/08/26 16:54:44;;;;;;;0.20;0.20;;;20.90;99.90;24.00;100817.00;;;;5052807;28;20223;-66
2023/08/26 16:57:10;;;;;;;0.10;0.10;;;20.90;99.90;24.70;100815.00;;;;5026117;28;20185;-66
2023/08/26 16:59:41;;;;;;;0.10;0.10;;;20.90;99.90;23.60;100820.00;;;;5036576;28;20269;-66
2023/08/26 17:02:07;;;;;;;0.10;0.10;;;20.70;99.90;23.40;100807.00;;;;5028328;28;20209;-66
2023/08/26 17:04:33;;;;;;;0.10;0.10;;;20.30;99.90;23.70;100801.00;;;;5028048;28;20225;-66
2023/08/26 17:07:05;;;;;;;0.10;0.10;;;20.50;99.90;24.20;100817.00;;;;5027361;28;20221;-66
2023/08/26 17:09:31;;;;;;;0.10;0.10;;;20.50;99.90;23.90;100826.00;;;;5054180;28;20197;-66
2023/08/26 17:12:03;;;;;;;0.10;0.10;;;20.60;99.90;24.20;100814.00;;;;5024530;28;20202;-66
2023/08/26 17:14:29;;;;;;;0.13;0.13;;;20.50;99.90;23.90;100825.00;;;;5027283;28;20191;-66
2023/08/26 17:17:00;;;;;;;0.30;0.30;;;20.60;99.90;23.30;100812.00;;;;5046641;28;20235;-66
2023/08/26 17:19:26;;;;;;;0.10;0.10;;;20.50;99.90;24.20;100818.00;;;;5036031;28;20336;-66
2023/08/26 17:21:58;;;;;;;0.13;0.13;;;20.50;99.90;24.20;100822.00;;;;5018193;28;20247;-66
2023/08/26 17:24:24;;;;;;;0.10;0.10;;;20.60;99.90;24.70;100838.00;;;;5019642;28;20256;-66
2023/08/26 17:26:50;;;;;;;0.10;0.10;;;20.80;99.90;24.60;100839.00;;;;5032423;28;20634;-66
2023/08/26 17:29:22;;;;;;;0.10;0.10;;;20.80;99.90;24.80;100850.00;;;;5033607;28;20630;-66
2023/08/26 17:31:53;;;;;;;0.10;0.10;;;21.00;99.90;24.80;100847.00;;;;5026159;28;20215;-66
2023/08/26 17:34:19;;;;;;;0.10;0.10;;;21.00;99.90;24.00;100821.00;;;;5024893;28;20196;-66
2023/08/26 17:36:48;;;;;;;0.20;0.20;;;20.60;99.90;24.90;100832.00;;;;5018337;28;20194;-66
2023/08/26 17:39:16;;;;;;;0.10;0.10;;;20.80;99.90;24.80;100850.00;;;;5021999;28;20626;-66
2023/08/26 17:41:43;;;;;;;0.10;0.10;;;21.00;99.90;24.00;100848.00;;;;5015518;28;20282;-66
2023/08/26 17:44:17;;;;;;;0.10;0.10;;;20.70;99.90;24.70;100830.00;;;;5017709;28;20187;-66
2023/08/26 17:46:43;;;;;;;0.10;0.10;;;20.70;99.90;23.50;100821.00;;;;5035972;28;20182;-66
2023/08/26 17:49:14;;;;;;;0.10;0.10;;;20.40;99.90;24.50;100834.00;;;;5023309;28;20266;-66
2023/08/26 17:51:40;;;;;;;0.15;0.15;;;20.50;99.90;24.60;100835.00;;;;5018198;28;20212;-67
2023/08/26 17:54:06;;;;;;;0.20;0.20;;;20.60;99.90;23.10;100821.00;;;;5021866;28;20186;-66
2023/08/26 17:56:37;;;;;;;0.20;0.20;;;20.10;99.90;23.90;100839.00;;;;5031611;28;20233;-66
2023/08/26 17:59:06;;;;;;;0.20;0.20;;;20.30;99.90;22.60;100801.00;;;;5026385;28;20223;-66
2023/08/26 18:01:38;;;;;;;0.10;0.10;;;19.90;99.90;22.30;100796.00;;;;5035504;28;20574;-66
2023/08/26 18:04:07;;;;;;;1.15;0.57;;;19.70;99.90;23.00;100812.00;;;;5017876;28;20186;-66
2023/08/26 18:06:38;;;;;;;0.20;0.20;;;19.80;99.90;21.50;100796.00;;;;5035352;28;20548;-66
2023/08/26 18:09:04;;;;;;;0.20;0.20;;;19.30;99.90;22.30;100802.00;;;;5018399;28;20178;-67